Time;durP1;ratioP1;P1;durP2;ratioP2;P2;SDS_P1;SDS_P2;PMS_P1;PMS_P2;Temp;Humidity;BMP_temperature;BMP_pressure;BME280_temperature;BME280_humidity;BME280_pressure;Samples;Min_cycle;Max_cycle;Signal;HPM_P1;HPM_P2
2022/04/25 00:01:11;;;;;;;16.10;13.00;;;;;;;;;;5096410;28;20237;-72
2022/04/25 00:03:38;;;;;;;15.43;13.68;;;;;;;;;;5096954;28;20204;-72
2022/04/25 00:06:07;;;;;;;16.23;14.00;;;;;;;;;;5096308;28;20204;-72
2022/04/25 00:08:34;;;;;;;15.95;13.35;;;;;;;;;;5096781;28;20284;-72
2022/04/25 00:11:01;;;;;;;14.25;12.68;;;;;;;;;;5096884;28;20189;-72
2022/04/25 00:13:28;;;;;;;20.30;13.60;;;;;;;;;;5097059;28;20191;-72
2022/04/25 00:15:56;;;;;;;17.75;14.15;;;;;;;;;;5096483;28;20291;-72
2022/04/25 00:18:23;;;;;;;20.10;15.07;;;;;;;;;;5096226;28;20706;-73
2022/04/25 00:20:50;;;;;;;16.20;14.50;;;;;;;;;;5096359;28;20199;-73
2022/04/25 00:23:19;;;;;;;19.13;14.23;;;;;;;;;;5096314;28;20194;-73
2022/04/25 00:25:46;;;;;;;18.60;13.48;;;;;;;;;;5096403;28;20200;-73
2022/04/25 00:28:14;;;;;;;18.67;14.70;;;;;;;;;;5096208;28;20196;-73
2022/04/25 00:30:41;;;;;;;19.17;14.13;;;;;;;;;;5096544;28;20200;-72
2022/04/25 00:33:08;;;;;;;17.35;14.45;;;;;;;;;;5095883;28;20653;-72
2022/04/25 00:35:35;;;;;;;20.13;14.57;;;;;;;;;;5096050;28;20241;-72
2022/04/25 00:38:02;;;;;;;20.67;14.57;;;;;;;;;;5096110;28;20191;-73
2022/04/25 00:40:31;;;;;;;18.05;15.55;;;;;;;;;;5096611;28;20199;-73
2022/04/25 00:42:59;;;;;;;19.65;13.88;;;;;;;;;;5095835;28;20203;-72
2022/04/25 00:45:26;;;;;;;18.02;14.68;;;;;;;;;;5095934;28;20545;-73
2022/04/25 00:47:53;;;;;;;17.80;15.65;;;;;;;;;;5095588;28;20190;-72
2022/04/25 00:50:20;;;;;;;19.10;15.75;;;;;;;;;;5095601;28;20199;-72
2022/04/25 00:52:47;;;;;;;18.38;14.52;;;;;;;;;;5095661;28;20286;-72
2022/04/25 00:55:14;;;;;;;19.88;15.40;;;;;;;;;;5095925;28;20223;-72
2022/04/25 00:57:43;;;;;;;21.58;16.00;;;;;;;;;;5095713;28;20280;-73
2022/04/25 01:00:12;;;;;;;17.05;13.30;;;;;;;;;;5096012;28;20284;-73
2022/04/25 01:02:39;;;;;;;18.08;15.73;;;;;;;;;;5095212;28;20196;-73
2022/04/25 01:05:07;;;;;;;18.15;14.20;;;;;;;;;;5095308;28;20294;-73
2022/04/25 01:07:35;;;;;;;19.27;15.18;;;;;;;;;;5095400;28;20207;-73
2022/04/25 01:10:03;;;;;;;20.63;13.85;;;;;;;;;;5095605;28;20197;-72
2022/04/25 01:12:30;;;;;;;17.15;14.65;;;;;;;;;;5094994;28;20223;-72
2022/04/25 01:15:00;;;;;;;17.63;14.48;;;;;;;;;;5095150;28;20216;-72
2022/04/25 01:17:27;;;;;;;18.05;15.00;;;;;;;;;;5094945;28;20207;-72
2022/04/25 01:19:54;;;;;;;17.83;15.63;;;;;;;;;;5095388;28;20715;-71
2022/04/25 01:22:23;;;;;;;19.98;16.85;;;;;;;;;;5094845;28;20192;-71
2022/04/25 01:27:37;;;;;;;20.58;14.88;;;;;;;;;;5094918;28;20608;-71
2022/04/25 01:30:04;;;;;;;19.13;15.13;;;;;;;;;;5095110;28;20190;-71
2022/04/25 01:32:32;;;;;;;19.30;15.10;;;;;;;;;;5094989;28;20565;-71
2022/04/25 01:34:59;;;;;;;18.58;15.82;;;;;;;;;;5094888;28;20231;-71
2022/04/25 01:37:26;;;;;;;20.02;14.23;;;;;;;;;;5094851;28;20227;-71
2022/04/25 01:39:55;;;;;;;23.63;15.35;;;;;;;;;;5094868;28;20199;-71
2022/04/25 01:42:23;;;;;;;19.50;16.73;;;;;;;;;;5094800;28;20201;-71
2022/04/25 01:44:51;;;;;;;18.33;15.98;;;;;;;;;;5095143;28;20304;-71
2022/04/25 01:47:18;;;;;;;21.20;16.52;;;;;;;;;;5095208;28;20262;-71
2022/04/25 01:49:45;;;;;;;20.02;17.30;;;;;;;;;;5094720;28;20202;-71
2022/04/25 01:52:16;;;;;;;19.83;17.67;;;;;;;;;;5094555;28;20286;-71
2022/04/25 01:54:44;;;;;;;22.77;16.42;;;;;;;;;;5094323;28;20710;-71
2022/04/25 01:57:12;;;;;;;19.88;16.92;;;;;;;;;;5094284;28;20196;-71
2022/04/25 01:59:39;;;;;;;21.15;17.35;;;;;;;;;;5094486;28;20196;-72
2022/04/25 02:02:07;;;;;;;22.90;15.85;;;;;;;;;;5094161;28;20675;-72
2022/04/25 02:04:34;;;;;;;19.60;17.20;;;;;;;;;;5093763;28;20653;-71
2022/04/25 02:07:01;;;;;;;20.13;16.98;;;;;;;;;;5094383;28;20224;-72
2022/04/25 02:09:28;;;;;;;23.08;17.70;;;;;;;;;;5093995;28;20204;-72
2022/04/25 02:11:56;;;;;;;28.58;19.17;;;;;;;;;;5094724;28;20283;-72
2022/04/25 02:14:25;;;;;;;24.45;18.02;;;;;;;;;;5094253;28;20216;-72
2022/04/25 02:16:52;;;;;;;24.17;18.50;;;;;;;;;;5094474;28;20222;-71
2022/04/25 02:19:19;;;;;;;23.60;17.13;;;;;;;;;;5094270;28;20226;-71
2022/04/25 02:21:47;;;;;;;26.98;19.13;;;;;;;;;;5094138;28;20206;-71
2022/04/25 02:24:15;;;;;;;24.38;19.42;;;;;;;;;;5094102;28;20200;-72
2022/04/25 02:26:42;;;;;;;21.65;17.30;;;;;;;;;;5094138;28;20203;-72
2022/04/25 02:29:09;;;;;;;23.40;18.40;;;;;;;;;;5093996;28;20196;-72
2022/04/25 02:31:38;;;;;;;24.40;19.10;;;;;;;;;;5094074;28;20550;-72
2022/04/25 02:34:05;;;;;;;26.50;18.35;;;;;;;;;;5093799;28;20201;-72
2022/04/25 02:36:32;;;;;;;24.58;17.90;;;;;;;;;;5094004;28;20208;-72
2022/04/25 02:38:59;;;;;;;25.42;19.45;;;;;;;;;;5093822;28;20223;-72
2022/04/25 02:41:26;;;;;;;26.38;20.48;;;;;;;;;;5094458;28;20545;-72
2022/04/25 02:43:53;;;;;;;19.15;17.15;;;;;;;;;;5093825;28;20195;-72
2022/04/25 02:46:21;;;;;;;27.75;19.83;;;;;;;;;;5093879;28;20231;-72
2022/04/25 02:48:50;;;;;;;24.55;19.23;;;;;;;;;;5093471;28;20289;-72
2022/04/25 02:51:18;;;;;;;27.05;20.65;;;;;;;;;;5093477;28;20212;-72
2022/04/25 02:53:45;;;;;;;24.83;20.05;;;;;;;;;;5093410;28;20200;-72
2022/04/25 02:56:13;;;;;;;26.63;21.23;;;;;;;;;;5094078;28;20222;-71
2022/04/25 02:58:40;;;;;;;31.73;21.05;;;;;;;;;;5093666;28;20195;-72
2022/04/25 03:01:08;;;;;;;24.00;20.15;;;;;;;;;;5093392;28;20198;-72
2022/04/25 03:03:37;;;;;;;23.90;20.10;;;;;;;;;;5093285;28;20232;-72
2022/04/25 03:06:06;;;;;;;27.08;19.20;;;;;;;;;;5093787;28;20287;-72
2022/04/25 03:08:34;;;;;;;23.60;19.40;;;;;;;;;;5093555;28;20194;-72
2022/04/25 03:11:03;;;;;;;23.45;19.55;;;;;;;;;;5093375;28;20249;-72
2022/04/25 03:13:30;;;;;;;26.50;20.48;;;;;;;;;;5093533;28;20224;-72
2022/04/25 03:15:58;;;;;;;27.45;22.55;;;;;;;;;;5096859;28;20315;-71
2022/04/25 03:18:25;;;;;;;28.13;20.73;;;;;;;;;;5097241;28;20226;-72
2022/04/25 03:20:52;;;;;;;25.15;21.13;;;;;;;;;;5097249;28;20284;-72
2022/04/25 03:23:21;;;;;;;26.58;20.95;;;;;;;;;;5098299;28;20223;-72
2022/04/25 03:25:49;;;;;;;28.85;20.25;;;;;;;;;;5097243;28;20648;-71
2022/04/25 03:28:16;;;;;;;28.98;21.02;;;;;;;;;;5097310;28;20197;-72
2022/04/25 03:30:43;;;;;;;25.02;20.55;;;;;;;;;;5097372;28;20196;-72
2022/04/25 03:33:11;;;;;;;27.58;21.15;;;;;;;;;;5097805;28;20206;-71
2022/04/25 03:35:39;;;;;;;27.48;21.48;;;;;;;;;;5097164;28;20227;-72
2022/04/25 03:38:07;;;;;;;29.27;22.92;;;;;;;;;;5096993;28;20200;-73
2022/04/25 03:40:35;;;;;;;27.08;19.77;;;;;;;;;;5096817;28;20201;-73
2022/04/25 03:43:03;;;;;;;25.98;19.95;;;;;;;;;;5096926;28;20191;-71
2022/04/25 03:45:31;;;;;;;25.92;21.65;;;;;;;;;;5096796;28;20193;-71
2022/04/25 03:47:58;;;;;;;33.65;21.15;;;;;;;;;;5096861;28;20304;-71
2022/04/25 03:50:26;;;;;;;27.20;21.52;;;;;;;;;;5096658;28;20751;-72
2022/04/25 03:52:53;;;;;;;27.35;21.10;;;;;;;;;;5096978;28;20199;-72
2022/04/25 03:58:12;;;;;;;27.85;20.80;;;;;;;;;;5058006;28;20584;-72
2022/04/25 04:00:39;;;;;;;24.20;19.30;;;;;;;;;;5096523;28;20188;-71
2022/04/25 04:03:07;;;;;;;26.77;20.20;;;;;;;;;;5096451;28;20192;-72
2022/04/25 04:05:34;;;;;;;31.33;20.65;;;;;;;;;;5096314;28;20198;-72
2022/04/25 04:08:01;;;;;;;23.02;20.35;;;;;;;;;;5096379;28;20218;-67
2022/04/25 04:10:29;;;;;;;26.17;18.27;;;;;;;;;;5096566;28;20653;-72
2022/04/25 04:12:56;;;;;;;35.45;21.75;;;;;;;;;;5096339;28;20282;-72
2022/04/25 04:15:24;;;;;;;21.05;18.15;;;;;;;;;;5096207;28;20635;-72
2022/04/25 04:17:52;;;;;;;25.92;19.40;;;;;;;;;;5096240;28;20191;-72
2022/04/25 04:20:19;;;;;;;20.73;18.52;;;;;;;;;;5096391;28;20198;-73
2022/04/25 04:22:46;;;;;;;23.95;19.58;;;;;;;;;;5096687;28;20552;-69
2022/04/25 04:25:15;;;;;;;25.80;20.52;;;;;;;;;;5096000;28;20209;-70
2022/04/25 04:27:43;;;;;;;28.75;20.17;;;;;;;;;;5095288;28;20204;-70
2022/04/25 04:30:11;;;;;;;22.30;18.27;;;;;;;;;;5096239;28;20224;-70
2022/04/25 04:32:41;;;;;;;21.27;18.40;;;;;;;;;;5095069;28;20209;-70
2022/04/25 04:35:09;;;;;;;25.67;20.73;;;;;;;;;;5095025;28;20223;-70
2022/04/25 04:37:37;;;;;;;26.42;17.80;;;;;;;;;;5095454;28;20254;-70
2022/04/25 04:42:49;;;;;;;20.92;18.60;;;;;;;;;;5095113;28;20629;-70
2022/04/25 04:45:17;;;;;;;23.13;17.70;;;;;;;;;;5094693;28;20255;-70
2022/04/25 04:47:45;;;;;;;23.90;18.55;;;;;;;;;;5094991;28;20199;-70
2022/04/25 04:50:15;;;;;;;25.10;17.35;;;;;;;;;;5095474;28;20282;-70
2022/04/25 04:52:43;;;;;;;19.88;17.55;;;;;;;;;;5094909;28;20248;-70
2022/04/25 04:55:11;;;;;;;18.35;16.40;;;;;;;;;;5094863;28;20310;-70
2022/04/25 04:57:38;;;;;;;22.13;17.30;;;;;;;;;;5095516;28;20206;-70
2022/04/25 05:00:06;;;;;;;20.30;17.30;;;;;;;;;;5095386;28;20207;-70
2022/04/25 05:02:34;;;;;;;20.48;16.15;;;;;;;;;;5095121;28;20220;-70
2022/04/25 05:05:02;;;;;;;20.63;17.38;;;;;;;;;;5094967;28;20198;-70
2022/04/25 05:07:29;;;;;;;20.98;16.70;;;;;;;;;;5095634;28;20203;-69
2022/04/25 05:09:57;;;;;;;18.42;16.23;;;;;;;;;;5095644;28;20204;-69
2022/04/25 05:12:26;;;;;;;21.27;17.15;;;;;;;;;;5094707;28;20291;-70
2022/04/25 05:14:54;;;;;;;20.45;15.77;;;;;;;;;;5093270;28;20249;-70
2022/04/25 05:17:22;;;;;;;17.80;15.65;;;;;;;;;;5093351;28;20200;-69
2022/04/25 05:19:49;;;;;;;16.80;14.25;;;;;;;;;;5093584;28;20684;-69
2022/04/25 05:22:18;;;;;;;16.88;15.07;;;;;;;;;;5094903;28;20203;-72
2022/04/25 05:24:45;;;;;;;18.50;14.23;;;;;;;;;;5094954;28;20201;-72
2022/04/25 05:27:12;;;;;;;18.33;14.38;;;;;;;;;;5094734;28;20206;-72
2022/04/25 05:29:39;;;;;;;18.23;14.68;;;;;;;;;;5095302;28;20208;-72
2022/04/25 05:32:07;;;;;;;19.45;14.35;;;;;;;;;;5094616;28;20291;-72
2022/04/25 05:34:34;;;;;;;14.65;13.07;;;;;;;;;;5095092;28;20205;-72
2022/04/25 05:37:02;;;;;;;17.02;14.07;;;;;;;;;;5094588;28;20219;-72
2022/04/25 05:39:32;;;;;;;15.10;12.95;;;;;;;;;;5093930;28;20227;-73
2022/04/25 05:42:00;;;;;;;14.57;13.13;;;;;;;;;;5095015;28;20209;-72
2022/04/25 05:44:27;;;;;;;15.30;13.65;;;;;;;;;;5094622;28;20198;-73
2022/04/25 05:46:56;;;;;;;16.08;13.43;;;;;;;;;;5094164;28;20584;-73
2022/04/25 05:52:08;;;;;;;13.73;12.38;;;;;;;;;;5094433;28;20182;-71
2022/04/25 05:54:37;;;;;;;15.80;12.90;;;;;;;;;;5094421;28;20196;-71
2022/04/25 05:57:06;;;;;;;15.30;13.70;;;;;;;;;;5094260;28;20682;-71
2022/04/25 05:59:33;;;;;;;18.40;15.13;;;;;;;;;;5094811;28;20208;-72
2022/04/25 06:02:00;;;;;;;14.20;12.70;;;;;;;;;;5094294;28;20290;-72
2022/04/25 06:04:27;;;;;;;16.25;14.45;;;;;;;;;;5094078;28;20744;-72
2022/04/25 06:06:55;;;;;;;16.95;14.50;;;;;;;;;;5094322;28;20562;-72
2022/04/25 06:09:25;;;;;;;16.42;14.45;;;;;;;;;;5094382;28;20191;-71
2022/04/25 06:11:54;;;;;;;15.75;14.05;;;;;;;;;;5094307;28;20189;-72
2022/04/25 06:14:22;;;;;;;17.02;15.20;;;;;;;;;;5094277;28;20681;-71
2022/04/25 06:16:49;;;;;;;25.25;19.45;;;;;;;;;;5094250;28;20285;-71
2022/04/25 06:19:17;;;;;;;21.77;17.35;;;;;;;;;;5094190;28;20231;-71
2022/04/25 06:21:44;;;;;;;17.13;15.43;;;;;;;;;;5093760;28;20196;-71
2022/04/25 06:24:11;;;;;;;15.80;13.60;;;;;;;;;;5093791;28;20208;-71
2022/04/25 06:26:38;;;;;;;17.80;14.90;;;;;;;;;;5094045;28;20205;-71
2022/04/25 06:29:07;;;;;;;16.77;13.35;;;;;;;;;;5094088;28;20191;-71
2022/04/25 06:31:34;;;;;;;19.25;14.80;;;;;;;;;;5093671;28;20197;-71
2022/04/25 06:34:02;;;;;;;18.05;15.38;;;;;;;;;;5093682;28;20197;-71
2022/04/25 06:36:29;;;;;;;17.02;14.50;;;;;;;;;;5093792;28;20221;-72
2022/04/25 06:38:56;;;;;;;17.08;14.50;;;;;;;;;;5094101;28;20203;-72
2022/04/25 06:41:23;;;;;;;17.42;15.52;;;;;;;;;;5093769;28;20289;-72
2022/04/25 06:43:50;;;;;;;17.73;13.50;;;;;;;;;;5093783;28;20202;-71
2022/04/25 06:46:19;;;;;;;20.95;15.60;;;;;;;;;;5093394;28;20311;-71
2022/04/25 06:49:19;;;;;;;20.00;17.23;;;;;;;;;;5093204;28;20195;-72
2022/04/25 06:51:34;;;;;;;19.05;16.50;;;;;;;;;;5093422;28;20192;-72
2022/04/25 06:54:01;;;;;;;22.02;15.63;;;;;;;;;;5093317;28;20287;-72
2022/04/25 06:56:29;;;;;;;22.95;14.30;;;;;;;;;;5093593;28;20210;-72
2022/04/25 06:58:56;;;;;;;17.88;15.02;;;;;;;;;;5093368;28;20651;-73
2022/04/25 07:01:25;;;;;;;20.23;15.52;;;;;;;;;;5093625;28;20261;-73
2022/04/25 07:03:52;;;;;;;22.00;16.08;;;;;;;;;;5093953;28;20207;-72
2022/04/25 07:06:19;;;;;;;21.20;15.23;;;;;;;;;;5093283;28;20284;-72
2022/04/25 07:08:46;;;;;;;16.95;13.57;;;;;;;;;;5093549;28;20561;-73
2022/04/25 07:11:13;;;;;;;19.30;15.27;;;;;;;;;;5093253;28;20227;-72
2022/04/25 07:13:42;;;;;;;17.13;13.80;;;;;;;;;;5093247;28;20206;-73
2022/04/25 07:16:10;;;;;;;20.85;16.55;;;;;;;;;;5093441;28;20216;-73
2022/04/25 07:18:38;;;;;;;19.02;15.02;;;;;;;;;;5093182;28;20204;-72
2022/04/25 07:28:48;;;;;;;17.33;13.88;;;;;;;;;;5093469;28;20196;-73
2022/04/25 07:29:23;;;;;;;17.63;14.07;;;;;;;;;;5093380;28;20230;-72
2022/04/25 07:31:51;;;;;;;14.30;11.95;;;;;;;;;;5093385;28;20223;-72
2022/04/25 07:34:19;;;;;;;14.00;12.00;;;;;;;;;;5093556;28;20226;-72
2022/04/25 07:36:51;;;;;;;13.85;12.02;;;;;;;;;;5093069;28;20676;-73
2022/04/25 07:39:18;;;;;;;16.20;12.40;;;;;;;;;;5093099;28;20184;-73
2022/04/25 07:41:46;;;;;;;12.30;10.55;;;;;;;;;;5093362;28;20196;-72
2022/04/25 07:44:13;;;;;;;14.18;11.65;;;;;;;;;;5092907;28;20227;-73
2022/04/25 07:46:41;;;;;;;15.00;11.75;;;;;;;;;;5092857;28;20594;-73
2022/04/25 07:49:09;;;;;;;15.38;12.57;;;;;;;;;;5092936;28;20647;-72
2022/04/25 07:51:38;;;;;;;13.90;12.18;;;;;;;;;;5093632;28;20203;-72
2022/04/25 07:54:05;;;;;;;14.43;12.52;;;;;;;;;;5092817;28;20260;-72
2022/04/25 07:56:33;;;;;;;14.48;12.00;;;;;;;;;;5093033;28;20215;-72
2022/04/25 07:59:01;;;;;;;17.60;11.90;;;;;;;;;;5092744;28;20253;-72
2022/04/25 08:01:28;;;;;;;14.75;13.07;;;;;;;;;;5094564;28;20548;-72
2022/04/25 08:03:55;;;;;;;16.08;12.70;;;;;;;;;;5096954;28;20556;-72
2022/04/25 08:06:23;;;;;;;15.73;13.40;;;;;;;;;;5096401;28;20202;-72
2022/04/25 08:08:52;;;;;;;19.30;15.80;;;;;;;;;;5096649;28;20231;-72
2022/04/25 08:11:19;;;;;;;15.05;13.32;;;;;;;;;;5096663;28;20197;-72
2022/04/25 08:19:16;;;;;;;16.45;14.30;;;;;;;;;;5096341;28;20178;-72
2022/04/25 08:21:44;;;;;;;15.15;13.55;;;;;;;;;;5096326;28;20214;-72
2022/04/25 08:24:13;;;;;;;15.02;13.35;;;;;;;;;;5096290;28;20288;-72
2022/04/25 08:26:40;;;;;;;17.00;13.88;;;;;;;;;;5096305;28;20246;-72
2022/04/25 08:29:08;;;;;;;14.57;13.00;;;;;;;;;;5095964;28;20225;-72
2022/04/25 08:31:36;;;;;;;18.35;14.23;;;;;;;;;;5096261;28;20190;-72
2022/04/25 08:34:03;;;;;;;17.75;13.77;;;;;;;;;;5096107;28;20207;-72
2022/04/25 08:36:31;;;;;;;15.27;12.85;;;;;;;;;;5095807;28;20263;-72
2022/04/25 08:38:58;;;;;;;13.82;12.23;;;;;;;;;;5095720;28;20279;-72
2022/04/25 08:41:30;;;;;;;17.50;13.80;;;;;;;;;;5096105;28;20638;-72
2022/04/25 08:43:57;;;;;;;14.90;13.30;;;;;;;;;;5096351;28;20590;-72
2022/04/25 08:46:24;;;;;;;15.40;13.80;;;;;;;;;;5095943;28;20470;-72
2022/04/25 08:48:52;;;;;;;19.50;12.95;;;;;;;;;;5095842;28;20192;-72
2022/04/25 08:51:20;;;;;;;21.27;14.13;;;;;;;;;;5095561;28;20196;-72
2022/04/25 08:53:47;;;;;;;19.40;13.30;;;;;;;;;;5095729;28;20447;-72
2022/04/25 08:56:15;;;;;;;23.58;14.63;;;;;;;;;;5095689;28;20446;-72
2022/04/25 08:58:46;;;;;;;16.95;13.82;;;;;;;;;;5095366;28;20197;-72
2022/04/25 09:01:15;;;;;;;15.60;12.40;;;;;;;;;;5095507;28;20196;-72
2022/04/25 09:03:42;;;;;;;18.50;12.90;;;;;;;;;;5095596;28;20924;-72
2022/04/25 09:06:09;;;;;;;14.80;11.70;;;;;;;;;;5095287;28;20218;-72
2022/04/25 09:08:38;;;;;;;13.67;12.33;;;;;;;;;;5095436;28;20534;-72
2022/04/25 09:14:07;;;;;;;14.20;11.33;;;;;;;;;;5072731;28;20421;-72
2022/04/25 09:16:34;;;;;;;16.13;12.07;;;;;;;;;;5072585;28;20522;-73
2022/04/25 09:19:01;;;;;;;17.07;11.90;;;;;;;;;;5082536;28;20878;-72
2022/04/25 09:21:28;;;;;;;13.50;12.13;;;;;;;;;;5095870;28;20537;-72
2022/04/25 09:23:56;;;;;;;15.20;12.67;;;;;;;;;;5095645;28;20197;-72
2022/04/25 09:26:28;;;;;;;14.67;12.43;;;;;;;;;;5094938;28;20444;-73
2022/04/25 09:28:57;;;;;;;16.00;11.47;;;;;;;;;;5094830;28;20921;-73
2022/04/25 09:31:26;;;;;;;14.03;12.60;;;;;;;;;;5094951;28;20435;-73
2022/04/25 09:33:53;;;;;;;16.80;12.77;;;;;;;;;;5094624;28;20431;-73
2022/04/25 09:36:21;;;;;;;21.30;13.97;;;;;;;;;;5094656;28;20442;-72
2022/04/25 09:38:48;;;;;;;17.10;12.30;;;;;;;;;;5094863;28;20449;-72
2022/04/25 09:41:17;;;;;;;16.23;14.03;;;;;;;;;;5095265;28;20492;-72
2022/04/25 09:43:47;;;;;;;16.43;12.57;;;;;;;;;;5094452;28;20444;-72
2022/04/25 09:46:14;;;;;;;14.87;11.30;;;;;;;;;;5095219;28;20844;-72
2022/04/25 09:49:01;;;;;;;16.67;12.43;;;;;;;;;;5094711;28;20443;-72
2022/04/25 09:51:28;;;;;;;13.17;11.67;;;;;;;;;;5094945;28;20432;-72
2022/04/25 09:53:56;;;;;;;16.47;12.83;;;;;;;;;;5094163;28;21067;-72
2022/04/25 09:56:23;;;;;;;14.90;11.70;;;;;;;;;;5094427;28;20447;-72
2022/04/25 09:58:59;;;;;;;15.17;11.50;;;;;;;;;;5094096;28;20462;-72
2022/04/25 10:01:26;;;;;;;15.77;12.82;;;;;;;;;;5094513;28;20428;-72
2022/04/25 10:03:55;;;;;;;14.25;12.80;;;;;;;;;;5094419;28;20193;-72
2022/04/25 10:06:22;;;;;;;14.83;12.53;;;;;;;;;;5094115;28;20208;-72
2022/04/25 10:08:51;;;;;;;14.60;13.23;;;;;;;;;;5094492;28;20444;-72
2022/04/25 10:11:19;;;;;;;18.63;13.80;;;;;;;;;;5094071;28;20439;-72
2022/04/25 10:13:47;;;;;;;15.73;13.67;;;;;;;;;;5094099;28;20530;-72
2022/04/25 10:16:14;;;;;;;15.53;13.13;;;;;;;;;;5094657;28;20452;-72
2022/04/25 10:18:42;;;;;;;18.23;13.80;;;;;;;;;;5093942;28;20479;-72
2022/04/25 10:21:11;;;;;;;16.97;14.03;;;;;;;;;;5094159;28;20223;-72
2022/04/25 10:23:39;;;;;;;20.67;14.70;;;;;;;;;;5094019;28;21039;-72
2022/04/25 10:26:06;;;;;;;23.87;17.20;;;;;;;;;;5094143;28;20534;-72
2022/04/25 10:28:36;;;;;;;20.40;14.77;;;;;;;;;;5094490;28;20439;-72
2022/04/25 10:31:05;;;;;;;14.13;12.50;;;;;;;;;;5093682;28;20440;-72
2022/04/25 10:33:48;;;;;;;20.20;16.13;;;;;;;;;;5093975;28;20766;-72
2022/04/25 10:39:13;;;;;;;27.30;17.07;;;;;;;;;;5124089;27;20526;-72
2022/04/25 10:44:48;;;;;;;22.73;15.40;;;;;;;;;;5090742;28;20403;-72
2022/04/25 10:47:16;;;;;;;25.67;15.83;;;;;;;;;;5090904;28;20438;-71
2022/04/25 10:49:45;;;;;;;24.67;18.47;;;;;;;;;;5090552;28;20442;-71
2022/04/25 10:52:33;;;;;;;19.77;16.47;;;;;;;;;;5090963;28;20534;-71
2022/04/25 10:55:19;;;;;;;22.23;17.30;;;;;;;;;;5090507;28;20470;-72
2022/04/25 10:58:07;;;;;;;18.30;16.37;;;;;;;;;;5090654;28;20471;-71
2022/04/25 11:00:51;;;;;;;17.83;15.98;;;;;;;;;;5090404;28;20427;-71
2022/04/25 11:03:19;;;;;;;26.80;17.40;;;;;;;;;;5091201;28;20186;-72
2022/04/25 11:05:47;;;;;;;21.03;16.73;;;;;;;;;;5090305;28;20284;-71
2022/04/25 11:08:27;;;;;;;25.50;16.90;;;;;;;;;;5090924;28;20455;-72
2022/04/25 11:11:09;;;;;;;24.35;18.42;;;;;;;;;;5090228;28;20476;-72
2022/04/25 11:14:01;;;;;;;23.25;17.13;;;;;;;;;;5087987;28;20231;-71
2022/04/25 11:16:29;;;;;;;22.80;17.20;;;;;;;;;;5089880;28;20651;-72
2022/04/25 11:19:09;;;;;;;28.70;18.47;;;;;;;;;;5090237;28;20293;-71
2022/04/25 11:21:37;;;;;;;23.48;18.70;;;;;;;;;;5089951;28;20451;-71
2022/04/25 11:24:04;;;;;;;25.00;16.90;;;;;;;;;;5090169;28;20194;-71
2022/04/25 11:26:50;;;;;;;27.40;16.40;;;;;;;;;;5089965;28;20886;-71
2022/04/25 11:29:19;;;;;;;24.70;17.40;;;;;;;;;;5090488;28;20431;-72
2022/04/25 11:31:46;;;;;;;24.50;18.13;;;;;;;;;;5089866;28;20512;-72
2022/04/25 11:34:14;;;;;;;21.33;17.10;;;;;;;;;;5090023;28;20797;-72
2022/04/25 11:36:42;;;;;;;23.73;18.80;;;;;;;;;;5089018;28;20474;-68
2022/04/25 11:41:55;;;;;;;22.77;18.60;;;;;;;;;;5089811;28;20766;-71
2022/04/25 11:44:23;;;;;;;21.70;17.50;;;;;;;;;;5090092;28;20440;-72
2022/04/25 11:46:51;;;;;;;21.97;18.63;;;;;;;;;;5089876;28;20436;-73
2022/04/25 11:49:27;;;;;;;20.27;17.17;;;;;;;;;;5081841;28;20432;-72
2022/04/25 11:51:56;;;;;;;25.87;18.33;;;;;;;;;;5075048;28;20820;-73
2022/04/25 11:54:23;;;;;;;24.07;19.47;;;;;;;;;;5074984;28;20543;-73
2022/04/25 11:56:50;;;;;;;25.80;18.07;;;;;;;;;;5074912;28;20468;-72
2022/04/25 11:59:19;;;;;;;22.90;17.80;;;;;;;;;;5074975;28;20564;-72
2022/04/25 12:01:49;;;;;;;21.93;17.17;;;;;;;;;;5074822;28;20476;-72
2022/04/25 12:04:17;;;;;;;25.20;16.97;;;;;;;;;;5075314;28;20436;-72
2022/04/25 12:06:48;;;;;;;23.23;18.13;;;;;;;;;;5075103;28;20437;-72
2022/04/25 12:17:38;;;;;;;23.93;20.53;;;;;;;;;;5074854;28;20209;-73
2022/04/25 12:20:07;;;;;;;25.97;20.13;;;;;;;;;;5074885;28;20444;-73
2022/04/25 12:22:35;;;;;;;27.20;19.90;;;;;;;;;;5074964;28;20447;-73
2022/04/25 12:25:12;;;;;;;29.10;20.80;;;;;;;;;;5075427;28;20445;-72
2022/04/25 12:27:41;;;;;;;23.83;19.40;;;;;;;;;;5075129;28;20197;-73
2022/04/25 12:30:09;;;;;;;22.60;17.60;;;;;;;;;;5074607;28;20546;-73
2022/04/25 12:32:37;;;;;;;24.17;18.30;;;;;;;;;;5075160;28;20858;-73
2022/04/25 12:35:18;;;;;;;20.15;17.92;;;;;;;;;;5075587;28;20449;-73
2022/04/25 12:37:45;;;;;;;25.73;18.13;;;;;;;;;;5074769;28;20234;-72
2022/04/25 12:40:13;;;;;;;19.92;17.83;;;;;;;;;;5074834;28;20445;-72
2022/04/25 12:42:47;;;;;;;21.60;17.60;;;;;;;;;;5074317;28;20194;-72
2022/04/25 12:45:14;;;;;;;20.43;16.97;;;;;;;;;;5074951;28;20453;-72
2022/04/25 12:47:44;;;;;;;21.57;16.47;;;;;;;;;;5074384;28;20459;-73
2022/04/25 12:50:13;;;;;;;21.00;17.10;;;;;;;;;;5074097;28;20448;-73
2022/04/25 12:52:49;;;;;;;18.87;16.43;;;;;;;;;;5075005;28;20447;-73
2022/04/25 12:55:16;;;;;;;20.50;16.40;;;;;;;;;;5074698;28;20447;-73
2022/04/25 12:57:51;;;;;;;20.43;16.17;;;;;;;;;;5074446;28;20487;-72
2022/04/25 13:00:18;;;;;;;20.98;16.83;;;;;;;;;;5073954;28;20450;-73
2022/04/25 13:02:45;;;;;;;20.13;16.33;;;;;;;;;;5074119;28;20301;-72
2022/04/25 13:05:15;;;;;;;17.87;15.97;;;;;;;;;;5074711;28;20451;-72
2022/04/25 13:07:43;;;;;;;19.60;15.57;;;;;;;;;;5074787;28;20458;-73
2022/04/25 13:10:11;;;;;;;20.53;17.10;;;;;;;;;;5074196;28;20440;-73
2022/04/25 13:12:39;;;;;;;19.20;14.80;;;;;;;;;;5074567;28;20440;-72
2022/04/25 13:15:08;;;;;;;18.70;15.10;;;;;;;;;;5074895;28;20767;-72
2022/04/25 13:17:36;;;;;;;17.80;15.50;;;;;;;;;;5074473;28;20441;-73
2022/04/25 13:20:03;;;;;;;16.23;14.45;;;;;;;;;;5074086;28;20460;-73
2022/04/25 13:22:31;;;;;;;18.00;16.10;;;;;;;;;;5074167;28;20198;-73
2022/04/25 13:24:59;;;;;;;18.93;15.23;;;;;;;;;;5074500;28;20544;-73
2022/04/25 13:27:26;;;;;;;19.30;16.37;;;;;;;;;;5074666;28;20467;-73
2022/04/25 13:29:53;;;;;;;19.07;15.97;;;;;;;;;;5073799;28;20440;-73
2022/04/25 13:32:20;;;;;;;16.80;15.07;;;;;;;;;;5074293;28;20447;-73
2022/04/25 13:34:47;;;;;;;18.60;15.37;;;;;;;;;;5074504;28;20447;-73
2022/04/25 13:37:15;;;;;;;20.77;16.27;;;;;;;;;;5073840;28;20563;-73
2022/04/25 13:39:43;;;;;;;17.97;16.10;;;;;;;;;;5073918;28;20563;-73
2022/04/25 13:42:11;;;;;;;19.67;16.17;;;;;;;;;;5073404;28;20926;-73
2022/04/25 13:44:38;;;;;;;19.30;15.37;;;;;;;;;;5073831;28;20436;-73
2022/04/25 13:47:06;;;;;;;19.63;16.60;;;;;;;;;;5074113;28;20770;-73
2022/04/25 13:49:33;;;;;;;20.87;16.00;;;;;;;;;;5073227;28;20455;-74
2022/04/25 13:52:01;;;;;;;22.67;16.70;;;;;;;;;;5073603;28;20440;-74
2022/04/25 13:54:28;;;;;;;19.30;16.10;;;;;;;;;;5074198;28;20448;-72
2022/04/25 13:56:57;;;;;;;26.27;17.87;;;;;;;;;;5074000;28;20436;-73
2022/04/25 13:59:24;;;;;;;19.10;16.30;;;;;;;;;;5073443;28;20498;-73
2022/04/25 14:01:51;;;;;;;19.17;16.43;;;;;;;;;;5073471;28;20440;-73
2022/04/25 14:04:19;;;;;;;17.13;15.33;;;;;;;;;;5073885;28;20453;-72
2022/04/25 14:06:46;;;;;;;19.97;15.60;;;;;;;;;;5073361;28;20447;-73
2022/04/25 14:09:13;;;;;;;16.70;14.90;;;;;;;;;;5073042;28;20440;-72
2022/04/25 14:11:41;;;;;;;23.63;16.60;;;;;;;;;;5073029;28;20440;-72
2022/04/25 14:14:09;;;;;;;20.27;18.10;;;;;;;;;;5073731;28;20447;-72
2022/04/25 14:16:36;;;;;;;26.93;17.60;;;;;;;;;;5073469;28;20436;-72
2022/04/25 14:19:04;;;;;;;23.73;16.40;;;;;;;;;;5072920;28;20472;-72
2022/04/25 14:21:32;;;;;;;23.80;17.60;;;;;;;;;;5072917;28;20991;-73
2022/04/25 14:24:00;;;;;;;19.23;16.90;;;;;;;;;;5073390;28;20440;-72
2022/04/25 14:26:27;;;;;;;22.40;18.43;;;;;;;;;;5073691;28;20858;-73
2022/04/25 14:28:54;;;;;;;20.77;18.57;;;;;;;;;;5072920;28;21017;-73
2022/04/25 14:31:23;;;;;;;21.47;18.90;;;;;;;;;;5073269;28;20544;-73
2022/04/25 14:33:50;;;;;;;21.90;18.37;;;;;;;;;;5072972;28;20497;-73
2022/04/25 14:36:17;;;;;;;21.60;18.30;;;;;;;;;;5073126;28;20448;-74
2022/04/25 14:38:45;;;;;;;19.80;16.20;;;;;;;;;;5073266;28;20541;-73
2022/04/25 14:41:12;;;;;;;21.10;16.30;;;;;;;;;;5072823;28;20447;-73
2022/04/25 14:43:39;;;;;;;19.70;17.63;;;;;;;;;;5072944;28;20458;-73
2022/04/25 14:46:06;;;;;;;19.97;16.40;;;;;;;;;;5073641;28;20444;-73
2022/04/25 14:48:37;;;;;;;18.63;16.40;;;;;;;;;;5073076;28;20463;-72
2022/04/25 14:56:35;;;;;;;23.30;15.80;;;;;;;;;;5073146;28;20865;-72
2022/04/25 14:59:03;;;;;;;15.63;13.43;;;;;;;;;;5072639;28;20484;-73
2022/04/25 15:01:30;;;;;;;16.60;14.80;;;;;;;;;;5072500;28;20471;-72
2022/04/25 15:03:59;;;;;;;18.63;14.27;;;;;;;;;;5072856;28;20532;-73
2022/04/25 15:06:26;;;;;;;16.10;14.33;;;;;;;;;;5073323;28;20531;-73
2022/04/25 15:08:53;;;;;;;16.60;14.80;;;;;;;;;;5073259;28;20460;-72
2022/04/25 15:11:20;;;;;;;16.37;14.17;;;;;;;;;;5072887;28;20948;-73